Time;durP1;ratioP1;P1;durP2;ratioP2;P2;SDS_P1;SDS_P2;PMS_P1;PMS_P2;Temp;Humidity;BMP_temperature;BMP_pressure;BME280_temperature;BME280_humidity;BME280_pressure;Samples;Min_cycle;Max_cycle;Signal;HPM_P1;HPM_P2
2022/01/22 00:00:43;;;;;;;18.50;6.47;;;5.90;99.90;;;;;;5140106;27;20043;-76
2022/01/22 00:03:09;;;;;;;23.15;5.43;;;5.90;99.90;;;;;;5132635;27;20043;-76
2022/01/22 00:05:35;;;;;;;15.93;5.50;;;5.90;99.90;;;;;;5135484;27;20209;-76
2022/01/22 00:08:01;;;;;;;17.08;5.43;;;5.90;99.90;;;;;;5136154;27;20059;-76
2022/01/22 00:10:27;;;;;;;17.58;6.60;;;5.90;99.90;;;;;;5135856;27;20392;-75
2022/01/22 00:15:21;;;;;;;19.00;6.40;;;6.00;99.90;;;;;;5145152;27;20062;-75
2022/01/22 00:17:48;;;;;;;19.08;5.75;;;6.00;99.90;;;;;;5157526;27;20440;-76
2022/01/22 00:20:16;;;;;;;20.77;5.60;;;6.00;99.90;;;;;;5148493;27;20095;-75
2022/01/22 00:22:43;;;;;;;17.60;5.65;;;6.00;99.90;;;;;;5145656;27;20531;-75
2022/01/22 00:25:11;;;;;;;17.60;5.88;;;6.00;99.90;;;;;;5149302;27;20039;-75
2022/01/22 00:27:38;;;;;;;16.55;5.93;;;6.00;99.90;;;;;;5134785;27;20054;-76
2022/01/22 00:30:06;;;;;;;17.42;6.28;;;6.00;99.90;;;;;;5136415;27;20079;-76
2022/01/22 00:32:32;;;;;;;16.88;6.03;;;6.10;99.90;;;;;;5135499;27;20039;-75
2022/01/22 00:34:58;;;;;;;14.32;5.22;;;6.00;99.90;;;;;;5135979;27;20058;-75
2022/01/22 00:37:24;;;;;;;12.40;5.05;;;6.10;99.90;;;;;;5135271;27;20462;-75
2022/01/22 00:39:50;;;;;;;14.07;5.25;;;6.10;99.90;;;;;;5138677;27;20126;-76
2022/01/22 00:42:16;;;;;;;17.23;5.20;;;6.10;99.90;;;;;;5147808;27;20381;-75
2022/01/22 00:44:43;;;;;;;12.25;5.00;;;6.10;99.90;;;;;;5151440;27;20039;-75
2022/01/22 00:47:10;;;;;;;17.90;5.60;;;6.00;99.90;;;;;;5135893;27;20082;-75
2022/01/22 00:49:37;;;;;;;13.73;5.03;;;6.10;99.90;;;;;;5136446;27;20196;-75
2022/01/22 00:52:04;;;;;;;15.95;5.10;;;6.10;99.90;;;;;;5135447;27;20555;-76
2022/01/22 00:54:30;;;;;;;13.82;4.97;;;6.10;99.90;;;;;;5154298;27;20051;-75
2022/01/22 00:56:57;;;;;;;13.30;5.20;;;6.20;99.90;;;;;;5156462;27;20039;-75
2022/01/22 00:59:23;;;;;;;15.70;5.30;;;6.10;99.90;;;;;;5137952;27;20051;-72
2022/01/22 01:01:49;;;;;;;14.70;5.03;;;6.10;99.90;;;;;;5135152;27;20047;-75
2022/01/22 01:04:15;;;;;;;16.23;4.72;;;6.10;99.90;;;;;;5142359;27;20047;-75
2022/01/22 01:06:41;;;;;;;16.27;5.05;;;6.10;99.90;;;;;;5134962;27;20239;-75
2022/01/22 01:09:10;;;;;;;15.77;5.50;;;6.10;99.90;;;;;;5144821;27;20117;-76
2022/01/22 01:11:43;;;;;;;14.75;4.95;;;6.10;99.90;;;;;;5143460;27;20095;-76
2022/01/22 01:14:12;;;;;;;14.73;5.28;;;6.10;99.90;;;;;;5147211;27;20117;-76
2022/01/22 01:35:19;;;;;;;17.95;5.28;;;6.20;99.90;;;;;;5134778;27;20047;-76
2022/01/22 01:37:45;;;;;;;15.23;5.82;;;6.20;99.90;;;;;;5134332;27;20039;-75
2022/01/22 01:40:14;;;;;;;18.15;5.53;;;6.20;99.90;;;;;;5151915;27;20053;-76
2022/01/22 01:45:07;;;;;;;19.85;5.50;;;6.20;99.90;;;;;;5134851;27;20059;-76
2022/01/22 01:47:34;;;;;;;19.35;6.35;;;6.20;99.90;;;;;;5134135;27;20126;-76
2022/01/22 01:49:59;;;;;;;16.48;5.22;;;6.20;99.90;;;;;;5134764;27;20118;-75
2022/01/22 01:52:38;;;;;;;13.48;5.22;;;6.20;99.90;;;;;;5134398;27;20488;-76
2022/01/22 01:55:11;;;;;;;16.55;5.47;;;6.20;99.90;;;;;;5134894;27;20061;-74
2022/01/22 01:57:39;;;;;;;18.70;5.78;;;6.20;99.90;;;;;;5134045;27;20047;-75
2022/01/22 02:00:13;;;;;;;19.63;6.10;;;6.20;99.90;;;;;;5133222;27;20054;-75
2022/01/22 02:02:40;;;;;;;15.82;5.30;;;6.20;99.90;;;;;;5133832;27;20046;-75
2022/01/22 02:05:08;;;;;;;21.88;5.72;;;6.20;99.90;;;;;;5153777;27;20523;-76
2022/01/22 02:07:38;;;;;;;14.35;5.30;;;6.20;99.90;;;;;;5154632;27;20182;-75
2022/01/22 02:10:05;;;;;;;19.08;5.80;;;6.20;99.90;;;;;;5134922;27;20122;-76
2022/01/22 02:23:36;;;;;;;17.20;5.72;;;6.30;99.90;;;;;;5137679;27;20043;-72
2022/01/22 02:26:04;;;;;;;16.60;5.70;;;6.30;99.90;;;;;;5134057;27;20190;-75
2022/01/22 02:28:31;;;;;;;16.17;5.35;;;6.30;99.90;;;;;;5135326;27;20095;-73
2022/01/22 02:31:06;;;;;;;16.58;5.78;;;6.30;99.90;;;;;;5133604;27;20043;-75
2022/01/22 02:33:56;;;;;;;16.50;5.72;;;6.30;99.90;;;;;;5136797;27;20455;-72
2022/01/22 02:36:30;;;;;;;16.37;5.03;;;6.30;99.90;;;;;;5154493;27;20472;-75
2022/01/22 02:41:30;;;;;;;16.42;5.03;;;6.30;99.90;;;;;;5135058;27;20128;-76
2022/01/22 02:43:57;;;;;;;15.15;5.00;;;6.30;99.90;;;;;;5133347;27;20123;-76
2022/01/22 02:46:26;;;;;;;12.98;4.88;;;6.30;99.90;;;;;;5133931;27;20050;-76
2022/01/22 02:48:54;;;;;;;13.10;4.57;;;6.30;99.90;;;;;;5150080;27;20076;-75
2022/01/22 02:51:25;;;;;;;11.93;4.60;;;6.30;99.90;;;;;;5142504;27;20130;-76
2022/01/22 02:53:54;;;;;;;15.52;5.22;;;6.30;99.90;;;;;;5153781;27;20112;-75
2022/01/22 02:56:22;;;;;;;14.63;4.68;;;6.30;99.90;;;;;;5141651;27;20047;-76
2022/01/22 02:58:49;;;;;;;13.05;4.80;;;6.30;99.90;;;;;;5133011;27;20044;-75
2022/01/22 03:01:17;;;;;;;13.88;5.05;;;6.40;99.90;;;;;;5141822;27;20051;-76
2022/01/22 03:03:43;;;;;;;15.65;5.32;;;6.30;99.90;;;;;;5153638;27;20046;-75
2022/01/22 03:06:09;;;;;;;14.93;5.20;;;6.40;99.90;;;;;;5147059;27;20093;-76
2022/01/22 03:08:37;;;;;;;11.85;4.85;;;6.40;99.90;;;;;;5133583;27;20050;-76
2022/01/22 03:11:07;;;;;;;13.00;4.90;;;6.30;99.90;;;;;;5138655;27;20039;-76
2022/01/22 03:21:30;;;;;;;8.93;4.03;;;6.40;99.90;;;;;;5134595;27;20054;-75
2022/01/22 03:29:37;;;;;;;10.55;3.75;;;6.40;99.90;;;;;;5154082;27;20061;-75
2022/01/22 03:32:04;;;;;;;13.70;3.60;;;6.40;99.90;;;;;;5145473;27;20039;-75
2022/01/22 03:34:36;;;;;;;13.40;3.60;;;6.30;99.90;;;;;;5133218;27;20058;-75
2022/01/22 03:37:03;;;;;;;10.32;3.42;;;6.40;99.90;;;;;;5134753;27;20121;-76
2022/01/22 03:39:29;;;;;;;14.35;3.75;;;6.40;99.90;;;;;;5134817;27;20070;-76
2022/01/22 03:41:55;;;;;;;11.48;3.92;;;6.40;99.90;;;;;;5136682;27;20527;-75
2022/01/22 03:44:20;;;;;;;8.75;3.45;;;6.40;99.90;;;;;;5136905;27;20043;-76
2022/01/22 03:46:46;;;;;;;10.30;3.60;;;6.40;99.90;;;;;;5137621;27;20046;-75
2022/01/22 03:49:13;;;;;;;9.60;3.65;;;6.40;99.90;;;;;;5136737;27;20035;-76
2022/01/22 03:51:39;;;;;;;10.75;3.78;;;6.40;99.90;;;;;;5138426;27;20065;-75
2022/01/22 03:54:04;;;;;;;7.95;3.78;;;6.40;99.90;;;;;;5157246;27;20402;-75
2022/01/22 03:56:30;;;;;;;12.70;4.10;;;6.40;99.90;;;;;;5157548;27;20054;-75
2022/01/22 03:58:56;;;;;;;10.55;3.70;;;6.40;99.90;;;;;;5136015;27;20039;-76
2022/01/22 04:04:29;;;;;;;10.38;3.42;;;6.40;99.90;;;;;;5136176;27;20480;-75
2022/01/22 04:09:30;;;;;;;9.50;3.58;;;6.40;99.90;;;;;;5128115;27;20084;-76
2022/01/22 04:11:58;;;;;;;8.40;3.33;;;6.40;99.90;;;;;;5136121;27;20043;-75
2022/01/22 04:14:29;;;;;;;9.35;3.40;;;6.40;99.90;;;;;;5137286;27;20572;-75
2022/01/22 04:17:22;;;;;;;8.35;3.08;;;6.40;99.90;;;;;;5136196;27;20408;-75
2022/01/22 04:25:17;;;;;;;8.27;2.72;;;6.30;99.90;;;;;;5136339;27;20058;-76
2022/01/22 04:27:43;;;;;;;11.15;3.28;;;6.30;99.90;;;;;;5139875;27;20043;-75
2022/01/22 04:30:09;;;;;;;9.38;2.92;;;6.30;99.90;;;;;;5148431;27;20103;-75
2022/01/22 04:32:35;;;;;;;10.20;3.17;;;6.30;99.90;;;;;;5136431;27;20039;-75
2022/01/22 04:35:01;;;;;;;8.23;2.80;;;6.40;99.90;;;;;;5135681;27;20045;-75
2022/01/22 04:37:28;;;;;;;6.75;2.58;;;6.30;99.90;;;;;;5135207;27;20395;-74
2022/01/22 04:39:53;;;;;;;8.43;2.75;;;6.40;99.90;;;;;;5153434;27;20074;-75
2022/01/22 04:42:20;;;;;;;8.63;2.65;;;6.30;99.90;;;;;;5152475;27;20559;-76
2022/01/22 04:45:13;;;;;;;10.57;2.85;;;6.30;99.90;;;;;;5156836;27;20085;-75
2022/01/22 04:47:56;;;;;;;8.52;2.95;;;6.30;99.90;;;;;;5137953;27;20047;-75
2022/01/22 04:55:38;;;;;;;5.95;2.70;;;6.30;99.90;;;;;;5116003;27;20400;-75
2022/01/22 04:58:05;;;;;;;9.35;2.90;;;6.30;99.90;;;;;;5126782;27;20365;-75
2022/01/22 05:00:33;;;;;;;4.35;2.22;;;6.30;99.90;;;;;;5155646;27;20454;-76
2022/01/22 05:03:03;;;;;;;5.53;2.45;;;6.40;99.90;;;;;;5137221;27;20050;-75
2022/01/22 05:05:30;;;;;;;7.95;2.50;;;6.30;99.90;;;;;;5154549;27;20042;-76
2022/01/22 05:07:56;;;;;;;6.57;2.65;;;6.30;99.90;;;;;;5151826;27;20058;-75
2022/01/22 05:10:22;;;;;;;8.90;2.40;;;6.30;99.90;;;;;;5135555;27;20039;-74
2022/01/22 05:12:49;;;;;;;7.05;2.60;;;6.40;99.90;;;;;;5136096;27;20039;-75
2022/01/22 05:15:17;;;;;;;7.32;2.63;;;6.40;99.90;;;;;;5135165;27;20136;-76
2022/01/22 05:17:44;;;;;;;8.32;2.75;;;6.30;99.90;;;;;;5154214;27;20035;-76
2022/01/22 05:25:14;;;;;;;6.47;2.83;;;6.30;99.90;;;;;;5134685;27;20051;-75
2022/01/22 05:38:34;;;;;;;5.90;2.20;;;6.30;99.90;;;;;;5134737;27;20062;-76
2022/01/22 05:41:01;;;;;;;8.13;2.22;;;6.30;99.90;;;;;;5134552;27;20051;-76
2022/01/22 05:43:27;;;;;;;6.15;2.30;;;6.30;99.90;;;;;;5142320;27;20047;-75
2022/01/22 05:45:53;;;;;;;7.13;2.30;;;6.30;99.90;;;;;;5155538;27;20452;-76
2022/01/22 05:48:19;;;;;;;8.00;2.25;;;6.30;99.90;;;;;;5148519;27;20045;-76
2022/01/22 05:50:55;;;;;;;6.85;2.22;;;6.30;99.90;;;;;;5155318;27;20126;-76
2022/01/22 06:01:12;;;;;;;5.53;2.00;;;6.30;99.90;;;;;;5133740;27;20480;-75
2022/01/22 06:03:38;;;;;;;6.43;2.17;;;6.30;99.90;;;;;;5141043;27;20405;-75
2022/01/22 06:06:04;;;;;;;5.10;2.00;;;6.30;99.90;;;;;;5154680;27;20039;-75
2022/01/22 06:08:33;;;;;;;6.60;2.15;;;6.30;99.90;;;;;;5147925;27;20067;-76
2022/01/22 06:11:07;;;;;;;3.75;1.83;;;6.30;99.90;;;;;;5153580;27;20047;-72
2022/01/22 06:13:43;;;;;;;3.95;1.88;;;6.30;99.90;;;;;;5146226;27;20051;-75
2022/01/22 06:16:09;;;;;;;5.25;1.77;;;6.20;99.90;;;;;;5133831;27;20131;-75
2022/01/22 06:18:34;;;;;;;4.00;1.67;;;6.20;99.90;;;;;;5141145;27;20046;-76
2022/01/22 06:21:00;;;;;;;6.55;1.90;;;6.20;99.90;;;;;;5133624;27;20396;-71
2022/01/22 06:23:26;;;;;;;6.45;1.90;;;6.20;99.90;;;;;;5140842;27;20167;-76
2022/01/22 06:25:52;;;;;;;5.95;1.80;;;6.20;99.90;;;;;;5154867;27;20474;-76
2022/01/22 06:28:18;;;;;;;4.90;1.88;;;6.20;99.90;;;;;;5148695;27;20038;-76
2022/01/22 06:30:46;;;;;;;5.32;2.13;;;6.20;99.90;;;;;;5133679;27;20571;-76
2022/01/22 06:33:11;;;;;;;6.57;2.33;;;6.30;99.90;;;;;;5133505;27;20050;-76
2022/01/22 06:35:37;;;;;;;4.97;2.20;;;6.30;99.90;;;;;;5134071;27;20050;-76
2022/01/22 06:38:04;;;;;;;7.13;2.55;;;6.30;99.90;;;;;;5144628;27;20066;-72
2022/01/22 06:42:56;;;;;;;5.93;2.38;;;6.30;99.90;;;;;;5142493;27;20049;-76
2022/01/22 06:45:21;;;;;;;6.40;2.50;;;6.30;99.90;;;;;;5134226;27;20034;-76
2022/01/22 06:47:47;;;;;;;6.15;2.42;;;6.30;99.90;;;;;;5141778;27;20540;-76
2022/01/22 06:50:13;;;;;;;7.60;2.50;;;6.30;99.90;;;;;;5150876;27;20042;-76
2022/01/22 06:52:40;;;;;;;5.85;2.70;;;6.30;99.90;;;;;;5139851;27;20077;-76
2022/01/22 06:55:07;;;;;;;6.47;2.80;;;6.30;99.90;;;;;;5144024;27;20054;-75
2022/01/22 06:57:32;;;;;;;6.53;3.03;;;6.30;99.90;;;;;;5154441;27;20122;-76
2022/01/22 06:59:58;;;;;;;5.35;2.78;;;6.30;99.90;;;;;;5151102;27;20420;-76
2022/01/22 07:02:24;;;;;;;7.30;2.83;;;6.30;99.90;;;;;;5132641;28;20039;-76
2022/01/22 07:04:50;;;;;;;7.22;2.75;;;6.30;99.90;;;;;;5141206;27;20380;-77
2022/01/22 07:07:15;;;;;;;8.57;2.83;;;6.30;99.90;;;;;;5151408;27;20046;-77
2022/01/22 07:09:41;;;;;;;5.22;3.03;;;6.30;99.90;;;;;;5135877;27;20043;-78
2022/01/22 07:12:08;;;;;;;8.68;3.42;;;6.30;99.90;;;;;;5143033;27;20058;-75
2022/01/22 07:14:34;;;;;;;8.40;3.20;;;6.30;99.90;;;;;;5135525;27;20066;-78
2022/01/22 07:17:00;;;;;;;7.65;3.67;;;6.30;99.90;;;;;;5137919;27;20043;-77
2022/01/22 07:19:25;;;;;;;9.00;3.35;;;6.30;99.90;;;;;;5144986;27;20041;-78
2022/01/22 07:22:47;;;;;;;8.30;3.47;;;6.30;99.90;;;;;;5151947;27;20429;-77
2022/01/22 07:24:39;;;;;;;10.45;3.55;;;6.30;99.90;;;;;;5134127;27;20471;-76
2022/01/22 07:27:05;;;;;;;10.15;3.67;;;6.30;99.90;;;;;;5148546;27;20050;-82
2022/01/22 07:29:31;;;;;;;9.10;3.70;;;6.30;99.90;;;;;;5140018;27;20099;-81
2022/01/22 07:32:02;;;;;;;9.02;3.67;;;6.30;99.90;;;;;;5139669;27;20445;-82
2022/01/22 07:34:27;;;;;;;;;;;6.30;99.90;;;;;;5136767;27;20066;-82
2022/01/22 07:36:53;;;;;;;8.05;3.00;;;6.30;99.90;;;;;;5151443;27;19977;-82
2022/01/22 07:39:19;;;;;;;7.00;3.28;;;6.30;99.90;;;;;;5157401;27;20046;-82
2022/01/22 07:41:46;;;;;;;6.82;3.38;;;6.30;99.90;;;;;;5157801;27;20038;-82
2022/01/22 07:44:12;;;;;;;8.23;3.63;;;6.30;99.90;;;;;;5156612;27;20391;-81
2022/01/22 07:46:37;;;;;;;9.45;3.88;;;6.30;99.90;;;;;;5116612;27;20054;-82
2022/01/22 07:49:05;;;;;;;8.10;3.90;;;6.40;99.90;;;;;;5127853;27;20047;-82
2022/01/22 07:51:31;;;;;;;9.73;3.90;;;6.30;99.90;;;;;;5136655;27;20055;-81
2022/01/22 07:53:57;;;;;;;11.02;3.95;;;6.30;99.90;;;;;;5137351;27;20078;-82
2022/01/22 07:56:23;;;;;;;11.90;4.60;;;6.30;99.90;;;;;;5136370;27;20468;-82
2022/01/22 07:58:50;;;;;;;11.13;4.57;;;6.40;99.90;;;;;;5136582;27;20039;-82
2022/01/22 08:01:15;;;;;;;9.77;3.97;;;6.40;99.90;;;;;;5136103;27;20043;-82
2022/01/22 08:03:41;;;;;;;8.77;3.97;;;6.40;99.90;;;;;;5147206;27;20468;-70
2022/01/22 08:06:07;;;;;;;10.02;4.47;;;6.40;99.90;;;;;;5136784;27;20115;-81
2022/01/22 08:08:34;;;;;;;7.70;3.67;;;6.40;99.90;;;;;;5151197;27;20398;-81
2022/01/22 08:11:00;;;;;;;7.78;3.45;;;6.40;99.90;;;;;;5143292;27;20075;-82
2022/01/22 08:13:26;;;;;;;6.70;3.33;;;6.40;99.90;;;;;;5145097;27;20491;-81
2022/01/22 08:15:52;;;;;;;8.73;3.17;;;6.40;99.90;;;;;;5136882;27;20047;-81
2022/01/22 08:18:17;;;;;;;5.82;2.70;;;6.40;99.90;;;;;;5136322;27;20121;-81
2022/01/22 08:20:43;;;;;;;7.20;2.92;;;6.40;99.90;;;;;;5136060;27;20050;-80
2022/01/22 08:23:09;;;;;;;7.63;3.03;;;6.40;99.90;;;;;;5146004;27;20498;-81
2022/01/22 08:25:35;;;;;;;5.40;2.80;;;6.50;99.90;;;;;;5135511;27;20407;-81
2022/01/22 08:30:32;;;;;;;6.55;2.92;;;6.50;99.90;;;;;;5128541;27;20046;-80
2022/01/22 08:33:30;;;;;;;5.07;2.75;;;6.50;99.90;;;;;;5152154;27;20057;-82
2022/01/22 08:35:54;;;;;;;5.75;2.70;;;6.50;99.90;;;;;;5152452;27;20054;-81
2022/01/22 08:38:21;;;;;;;4.75;2.45;;;6.50;99.90;;;;;;5144244;27;20039;-80
2022/01/22 08:40:47;;;;;;;4.70;2.20;;;6.50;99.90;;;;;;5147506;27;20479;-79
2022/01/22 08:43:13;;;;;;;4.10;2.45;;;6.50;99.90;;;;;;5147938;27;20043;-80
2022/01/22 08:45:39;;;;;;;3.20;2.00;;;6.40;99.90;;;;;;5143680;27;20092;-82
2022/01/22 08:48:05;;;;;;;4.22;2.28;;;6.40;99.90;;;;;;5156921;27;20054;-82
2022/01/22 08:50:33;;;;;;;4.05;2.00;;;6.50;99.90;;;;;;5149891;27;20043;-82
2022/01/22 08:53:01;;;;;;;4.55;2.40;;;6.50;99.90;;;;;;5134623;27;20416;-81
2022/01/22 08:55:27;;;;;;;3.60;2.03;;;6.50;99.90;;;;;;5131119;27;20073;-81
2022/01/22 08:57:53;;;;;;;3.58;2.10;;;6.60;99.90;;;;;;5135384;27;20472;-81
2022/01/22 09:00:20;;;;;;;3.03;1.67;;;6.60;99.90;;;;;;5134397;27;20047;-81
2022/01/22 09:02:47;;;;;;;2.88;1.75;;;6.60;99.90;;;;;;5148982;27;20399;-82
2022/01/22 09:05:16;;;;;;;4.85;2.22;;;6.50;99.90;;;;;;5136595;27;20055;-81
2022/01/22 09:07:46;;;;;;;3.05;1.50;;;6.50;99.90;;;;;;5114797;28;20118;-82
2022/01/22 09:10:14;;;;;;;3.20;1.50;;;6.60;99.90;;;;;;5115147;28;20096;-81
2022/01/22 09:12:40;;;;;;;2.65;1.50;;;6.60;99.90;;;;;;5115146;27;20047;-82
2022/01/22 09:15:06;;;;;;;3.45;1.40;;;6.50;99.90;;;;;;5117961;27;20129;-82
2022/01/22 09:17:33;;;;;;;2.80;1.63;;;6.50;99.90;;;;;;5119997;27;20043;-82
2022/01/22 09:20:01;;;;;;;3.70;1.23;;;6.60;99.90;;;;;;5134711;27;20051;-81
2022/01/22 09:22:27;;;;;;;4.97;1.88;;;6.60;99.90;;;;;;5114362;28;20048;-80
2022/01/22 09:24:52;;;;;;;2.28;1.27;;;6.60;99.90;;;;;;5114748;28;20045;-79
2022/01/22 09:27:19;;;;;;;2.75;1.42;;;6.60;99.90;;;;;;5133981;27;20496;-74
2022/01/22 09:29:45;;;;;;;3.08;1.30;;;6.60;99.90;;;;;;5134569;27;20095;-79
2022/01/22 09:32:13;;;;;;;3.58;1.75;;;6.70;99.90;;;;;;5121506;27;20114;-77
2022/01/22 09:34:40;;;;;;;5.32;1.95;;;6.80;99.90;;;;;;5130190;27;20047;-79
2022/01/22 09:37:06;;;;;;;3.63;1.55;;;6.90;99.90;;;;;;5134776;27;20050;-80
2022/01/22 09:39:31;;;;;;;2.92;1.45;;;6.80;99.90;;;;;;5134858;27;20096;-79
2022/01/22 09:41:58;;;;;;;3.97;1.50;;;6.90;99.90;;;;;;5133693;27;20035;-80
2022/01/22 09:44:24;;;;;;;2.55;1.55;;;6.80;99.90;;;;;;5134230;27;20126;-78
2022/01/22 09:46:52;;;;;;;4.55;1.90;;;6.90;99.90;;;;;;5134985;27;20083;-80
2022/01/22 09:49:18;;;;;;;4.55;1.90;;;6.80;99.90;;;;;;5138534;27;20047;-79
2022/01/22 09:51:45;;;;;;;4.25;2.10;;;6.80;99.90;;;;;;5134219;27;20038;-79
2022/01/22 09:54:12;;;;;;;7.47;2.00;;;6.80;99.90;;;;;;5138504;27;20084;-79
2022/01/22 09:56:41;;;;;;;4.18;2.15;;;6.80;99.90;;;;;;5137925;27;20443;-79
2022/01/22 09:59:09;;;;;;;3.17;2.05;;;6.80;99.90;;;;;;5134553;27;20050;-80
2022/01/22 10:01:36;;;;;;;4.30;2.00;;;6.80;99.90;;;;;;5134147;27;20054;-80
2022/01/22 10:04:04;;;;;;;4.63;2.15;;;6.80;99.90;;;;;;5133557;27;20153;-77
2022/01/22 10:06:46;;;;;;;5.55;2.25;;;6.80;99.90;;;;;;5133827;27;20043;-77
2022/01/22 10:09:24;;;;;;;4.00;2.30;;;6.80;99.90;;;;;;5134681;27;20095;-78
2022/01/22 10:12:11;;;;;;;5.38;2.33;;;6.90;99.90;;;;;;5134442;27;20115;-79
2022/01/22 10:15:06;;;;;;;5.38;2.45;;;6.90;99.90;;;;;;5133872;27;20051;-78
2022/01/22 10:17:38;;;;;;;5.00;2.63;;;6.90;99.90;;;;;;5133978;27;20074;-78
2022/01/22 10:20:24;;;;;;;5.07;2.78;;;6.90;99.90;;;;;;5146298;27;20047;-78
2022/01/22 10:22:52;;;;;;;6.30;3.33;;;6.90;99.90;;;;;;5154138;27;20069;-78
2022/01/22 10:25:30;;;;;;;8.52;3.00;;;6.90;99.90;;;;;;5154998;27;20058;-79
2022/01/22 10:28:05;;;;;;;6.40;3.22;;;6.90;99.90;;;;;;5154986;27;20058;-78
2022/01/22 10:30:41;;;;;;;4.93;3.22;;;7.00;99.90;;;;;;5133317;27;20039;-78
2022/01/22 10:33:21;;;;;;;6.15;3.38;;;7.00;99.90;;;;;;5134254;27;20050;-79
2022/01/22 10:35:47;;;;;;;7.65;3.63;;;7.10;99.90;;;;;;5130990;27;20043;-76
2022/01/22 10:38:13;;;;;;;6.63;3.83;;;7.10;99.90;;;;;;5119351;27;20050;-78
2022/01/22 10:40:42;;;;;;;6.43;3.70;;;7.10;99.90;;;;;;5130244;27;20420;-78
2022/01/22 10:43:12;;;;;;;6.47;4.30;;;7.10;99.90;;;;;;5133088;27;20036;-79
2022/01/22 10:45:42;;;;;;;8.73;4.43;;;7.10;99.90;;;;;;5125996;27;20044;-78
2022/01/22 10:48:21;;;;;;;6.70;3.77;;;7.20;99.90;;;;;;5113090;28;20047;-79
2022/01/22 10:51:19;;;;;;;5.55;4.15;;;7.30;99.90;;;;;;5132361;27;20071;-78
2022/01/22 10:53:49;;;;;;;9.52;3.95;;;7.30;99.90;;;;;;5112164;28;20060;-79
2022/01/22 10:56:18;;;;;;;6.15;3.80;;;7.40;99.90;;;;;;5119222;27;20042;-79
2022/01/22 10:59:11;;;;;;;5.28;3.50;;;7.40;99.90;;;;;;5145939;27;20376;-79
2022/01/22 11:01:59;;;;;;;7.57;4.00;;;7.50;99.90;;;;;;5136161;27;20047;-79
2022/01/22 11:04:38;;;;;;;5.88;3.10;;;7.50;99.90;;;;;;5140168;27;20171;-80
2022/01/22 11:07:06;;;;;;;5.30;3.30;;;7.40;99.90;;;;;;5145715;27;20484;-79
2022/01/22 11:09:34;;;;;;;5.43;3.28;;;7.50;99.90;;;;;;5132037;27;20047;-78
2022/01/22 11:12:04;;;;;;;6.22;3.38;;;7.50;99.90;;;;;;5134027;27;20054;-79
2022/01/22 11:14:31;;;;;;;6.32;3.20;;;7.50;99.90;;;;;;5125335;27;20438;-72
2022/01/22 11:16:58;;;;;;;7.05;3.05;;;7.50;99.90;;;;;;5128036;27;20043;-80
2022/01/22 11:19:35;;;;;;;6.38;3.20;;;7.60;99.90;;;;;;5140177;27;20039;-79
2022/01/22 11:22:08;;;;;;;5.60;3.45;;;7.60;99.90;;;;;;5129901;27;20050;-78
2022/01/22 11:24:38;;;;;;;6.80;3.25;;;7.50;99.90;;;;;;5119366;27;20512;-79
2022/01/22 11:27:05;;;;;;;6.00;3.13;;;7.60;99.90;;;;;;5140469;27;20126;-79
2022/01/22 11:29:47;;;;;;;7.15;3.15;;;7.60;99.90;;;;;;5153822;27;20510;-79
2022/01/22 11:32:16;;;;;;;7.03;3.50;;;7.60;99.90;;;;;;5150529;27;20099;-79
2022/01/22 11:34:44;;;;;;;6.25;3.42;;;7.50;99.90;;;;;;5152412;27;20049;-79
2022/01/22 11:37:21;;;;;;;5.53;3.50;;;7.60;99.90;;;;;;5151197;27;20551;-79
2022/01/22 11:39:46;;;;;;;8.27;3.78;;;7.60;99.90;;;;;;5132804;27;20059;-79
2022/01/22 11:42:14;;;;;;;8.02;3.63;;;7.60;99.90;;;;;;5133266;27;20373;-79
2022/01/22 11:44:49;;;;;;;7.32;3.53;;;7.60;99.90;;;;;;5134722;27;20039;-79
2022/01/22 11:47:20;;;;;;;7.55;3.95;;;7.60;99.90;;;;;;5131335;27;20086;-79
2022/01/22 11:50:10;;;;;;;6.80;3.72;;;7.60;99.90;;;;;;5122772;27;20396;-79
2022/01/22 11:52:38;;;;;;;9.52;3.90;;;7.60;99.90;;;;;;5119136;27;20041;-73
2022/01/22 11:55:11;;;;;;;8.98;4.07;;;7.60;99.90;;;;;;5137843;27;20055;-79
2022/01/22 11:57:38;;;;;;;7.47;3.88;;;7.60;99.90;;;;;;5151207;27;20039;-72
2022/01/22 12:00:20;;;;;;;7.68;3.70;;;7.60;99.90;;;;;;5140706;27;20039;-78
2022/01/22 12:03:04;;;;;;;8.95;3.92;;;7.50;99.90;;;;;;5136273;27;20039;-77
2022/01/22 12:05:31;;;;;;;11.10;4.40;;;7.50;99.90;;;;;;5137027;27;20471;-78
2022/01/22 12:08:01;;;;;;;6.97;4.07;;;7.50;99.90;;;;;;5136413;27;20171;-78
2022/01/22 12:14:26;;;;;;;7.87;4.40;;;7.60;99.90;;;;;;5137023;27;20051;-78
2022/01/22 12:16:51;;;;;;;10.30;4.65;;;7.50;99.90;;;;;;5157398;27;20103;-78
2022/01/22 12:19:41;;;;;;;10.40;5.15;;;7.50;99.90;;;;;;5111277;27;20103;-78
2022/01/22 12:22:52;;;;;;;9.98;5.20;;;7.50;99.90;;;;;;5157590;27;20053;-78
2022/01/22 12:25:30;;;;;;;11.20;5.82;;;7.40;99.90;;;;;;5137862;27;20047;-78
2022/01/22 12:27:57;;;;;;;11.65;5.85;;;7.40;99.90;;;;;;5134963;27;20047;-77
2022/01/22 12:31:00;;;;;;;13.98;6.68;;;7.30;99.90;;;;;;5118568;27;20496;-77
2022/01/22 12:33:29;;;;;;;15.30;7.10;;;7.30;99.90;;;;;;5136534;27;20112;-78
2022/01/22 12:36:03;;;;;;;13.95;7.00;;;7.30;99.90;;;;;;5150570;27;20491;-78
2022/01/22 12:39:05;;;;;;;13.43;6.90;;;7.30;99.90;;;;;;5157242;27;20043;-78
2022/01/22 12:44:00;;;;;;;12.45;7.35;;;7.30;99.90;;;;;;5156167;27;20043;-78
2022/01/22 12:46:26;;;;;;;14.43;7.75;;;7.20;99.90;;;;;;5155002;27;20075;-78
2022/01/22 12:48:52;;;;;;;13.43;7.35;;;7.20;99.90;;;;;;5156304;27;20043;-78
2022/01/22 12:51:25;;;;;;;12.80;7.65;;;7.20;99.90;;;;;;5156982;27;20051;-79
2022/01/22 12:53:51;;;;;;;16.73;9.15;;;7.20;99.90;;;;;;5156230;27;20171;-77
2022/01/22 12:59:09;;;;;;;14.07;9.02;;;7.20;99.90;;;;;;5135410;27;20055;-78
2022/01/22 13:01:37;;;;;;;14.13;8.07;;;7.20;99.90;;;;;;5135969;27;20047;-78
2022/01/22 13:04:07;;;;;;;13.65;9.60;;;7.20;99.90;;;;;;5135221;27;20039;-78
2022/01/22 13:06:40;;;;;;;15.40;9.43;;;7.20;99.90;;;;;;5142159;27;20477;-78
2022/01/22 13:09:06;;;;;;;17.80;9.60;;;7.20;99.90;;;;;;5155891;27;20536;-77
2022/01/22 13:11:33;;;;;;;19.52;10.02;;;7.20;99.90;;;;;;5155569;27;20406;-78
2022/01/22 13:14:00;;;;;;;19.73;9.77;;;7.10;99.90;;;;;;5155680;27;20121;-77
2022/01/22 13:16:26;;;;;;;17.70;10.27;;;7.10;99.90;;;;;;5155245;27;20043;-78
2022/01/22 13:19:00;;;;;;;16.52;9.98;;;7.10;99.90;;;;;;5135003;27;20345;-77
2022/01/22 13:21:28;;;;;;;17.15;9.52;;;7.10;99.90;;;;;;5135480;27;20472;-78
2022/01/22 13:24:00;;;;;;;15.95;9.45;;;7.10;99.90;;;;;;5134742;27;20036;-77
2022/01/22 13:26:58;;;;;;;17.05;9.50;;;7.10;99.90;;;;;;5135027;27;20551;-78
2022/01/22 13:29:24;;;;;;;17.33;8.65;;;7.10;99.90;;;;;;5156126;27;20047;-77
2022/01/22 13:32:04;;;;;;;17.13;9.77;;;7.10;99.90;;;;;;5155577;27;20120;-72
2022/01/22 13:34:40;;;;;;;17.55;8.80;;;7.10;99.90;;;;;;5155888;27;20491;-77
2022/01/22 13:40:19;;;;;;;13.27;8.90;;;7.00;99.90;;;;;;5154097;27;20054;-78
2022/01/22 13:48:34;;;;;;;14.60;7.28;;;7.00;99.90;;;;;;5154846;27;20059;-77
2022/01/22 13:51:02;;;;;;;14.73;7.50;;;7.00;99.90;;;;;;5154647;27;20046;-77
2022/01/22 13:53:29;;;;;;;11.52;7.22;;;7.10;99.90;;;;;;5154976;27;20521;-77
2022/01/22 13:56:09;;;;;;;12.05;7.22;;;7.10;99.90;;;;;;5153290;27;20086;-72
2022/01/22 13:58:36;;;;;;;11.27;7.38;;;7.10;99.90;;;;;;5155694;27;20045;-78
2022/01/22 14:01:17;;;;;;;13.07;7.75;;;7.10;99.90;;;;;;5154979;27;20047;-78
2022/01/22 14:03:45;;;;;;;13.20;7.53;;;7.10;99.90;;;;;;5155601;27;20398;-78
2022/01/22 14:06:11;;;;;;;10.88;7.07;;;7.10;99.90;;;;;;5154779;27;20043;-78
2022/01/22 14:08:37;;;;;;;11.73;7.50;;;7.20;99.90;;;;;;5151102;27;20039;-78
2022/01/22 14:11:12;;;;;;;12.38;7.25;;;7.20;99.90;;;;;;5154472;27;20502;-77
2022/01/22 14:13:40;;;;;;;13.48;7.65;;;7.10;99.90;;;;;;5155152;27;20043;-79
2022/01/22 14:16:19;;;;;;;11.80;7.28;;;7.10;99.90;;;;;;5154455;27;20106;-77
2022/01/22 14:18:46;;;;;;;14.57;7.10;;;7.10;99.90;;;;;;5155041;27;20479;-78
2022/01/22 14:21:17;;;;;;;11.95;7.28;;;7.10;99.90;;;;;;5140656;27;20391;-77
2022/01/22 14:23:44;;;;;;;13.93;7.18;;;7.10;99.90;;;;;;5134130;27;20039;-78
2022/01/22 14:26:25;;;;;;;12.90;6.60;;;7.10;99.90;;;;;;5133677;27;20055;-78
2022/01/22 14:29:01;;;;;;;11.30;6.35;;;7.00;99.90;;;;;;5134310;27;20043;-78
2022/01/22 14:31:33;;;;;;;12.25;6.00;;;7.10;99.90;;;;;;5143816;27;20135;-78
2022/01/22 14:34:04;;;;;;;15.05;5.60;;;7.10;99.90;;;;;;5154693;27;20129;-74
2022/01/22 14:36:41;;;;;;;10.02;4.80;;;7.00;99.90;;;;;;5154731;27;20046;-78
2022/01/22 14:44:52;;;;;;;12.05;4.00;;;7.00;99.90;;;;;;5137084;27;20510;-78
2022/01/22 14:47:26;;;;;;;7.38;4.32;;;7.00;99.90;;;;;;5151680;27;20042;-77
2022/01/22 14:50:04;;;;;;;10.32;4.28;;;7.00;99.90;;;;;;5153614;27;20089;-78
2022/01/22 14:52:30;;;;;;;8.48;4.05;;;7.00;99.90;;;;;;5154503;27;20129;-78
2022/01/22 14:55:00;;;;;;;12.45;4.65;;;6.90;99.90;;;;;;5154529;27;20125;-78
2022/01/22 14:57:28;;;;;;;6.97;3.97;;;6.90;99.90;;;;;;5152656;27;20503;-78
2022/01/22 14:59:54;;;;;;;8.50;3.65;;;6.90;99.90;;;;;;5154178;27;20110;-78
2022/01/22 15:02:20;;;;;;;8.13;3.67;;;6.90;99.90;;;;;;5153757;27;20038;-78
2022/01/22 15:04:46;;;;;;;8.63;3.92;;;6.90;99.90;;;;;;5154650;27;20042;-78